Time,TemperatureF,DewpointF,PressureIn,WindDirection,WindDirectionDegrees,WindSpeedMPH,WindSpeedGustMPH,Humidity,HourlyPrecipIn,Conditions,Clouds,dailyrainin,SoftwareType,DateUTC
2013-02-01 00:01:00,45.2,42.5,30.29,SSE,158,0.0,0.2,90,0.00,,,0.00,WUHU216HW,2013-02-01 08:01:00,
2013-02-01 00:06:00,45.0,42.3,30.30,SSE,158,0.2,0.4,90,0.00,,,0.00,WUHU216HW,2013-02-01 08:06:00,
2013-02-01 00:11:00,44.6,41.7,30.29,South,180,0.4,0.4,89,0.00,,,0.00,WUHU216HW,2013-02-01 08:11:00,
2013-02-01 00:16:00,44.3,41.6,30.29,South,180,0.0,0.4,90,0.00,,,0.00,WUHU216HW,2013-02-01 08:16:00,
2013-02-01 00:21:00,44.1,41.4,30.29,SSE,158,0.4,0.7,90,0.00,,,0.00,WUHU216HW,2013-02-01 08:21:00,
2013-02-01 00:26:00,43.9,41.2,30.29,SSE,158,0.4,0.9,90,0.00,,,0.00,WUHU216HW,2013-02-01 08:26:00,
2013-02-01 00:31:00,43.7,41.0,30.29,SSE,158,0.0,0.9,90,0.00,,,0.00,WUHU216HW,2013-02-01 08:31:00,
2013-02-01 00:36:00,43.6,40.9,30.29,SW,225,0.0,0.7,90,0.00,,,0.00,WUHU216HW,2013-02-01 08:36:00,
2013-02-01 00:41:00,43.2,40.5,30.29,WSW,248,0.4,0.4,90,0.00,,,0.00,WUHU216HW,2013-02-01 08:41:00,
2013-02-01 00:46:00,42.8,40.1,30.29,WSW,248,0.0,0.4,90,0.00,,,0.00,WUHU216HW,2013-02-01 08:46:00,
2013-02-01 00:51:00,42.7,40.2,30.29,WSW,248,0.0,0.4,91,0.00,,,0.00,WUHU216HW,2013-02-01 08:51:00,
2013-02-01 00:56:00,42.5,40.1,30.29,WSW,248,0.0,0.0,91,0.00,,,0.00,WUHU216HW,2013-02-01 08:56:00,
2013-02-01 01:01:00,42.1,39.7,30.29,West,270,0.0,0.4,91,0.00,,,0.00,WUHU216HW,2013-02-01 09:01:00,
2013-02-01 01:06:00,41.6,39.2,30.29,NNW,338,0.0,0.4,91,0.00,,,0.00,WUHU216HW,2013-02-01 09:06:00,
2013-02-01 01:11:00,41.6,39.4,30.29,ENE,68,0.0,0.7,92,0.00,,,0.00,WUHU216HW,2013-02-01 09:11:00,
2013-02-01 01:16:00,41.4,39.2,30.28,ENE,68,0.4,0.7,92,0.00,,,0.00,WUHU216HW,2013-02-01 09:16:00,
2013-02-01 01:21:00,41.4,39.5,30.29,ENE,68,1.3,1.8,93,0.00,,,0.00,WUHU216HW,2013-02-01 09:21:00,
2013-02-01 01:26:00,41.4,39.5,30.28,ENE,68,0.0,1.8,93,0.00,,,0.00,WUHU216HW,2013-02-01 09:26:00,
2013-02-01 01:31:00,41.4,39.5,30.28,ENE,68,0.2,1.6,93,0.00,,,0.00,WUHU216HW,2013-02-01 09:31:00,
2013-02-01 01:36:00,41.4,39.5,30.28,ENE,68,0.0,0.4,93,0.00,,,0.00,WUHU216HW,2013-02-01 09:36:00,
2013-02-01 01:41:00,41.0,39.2,30.28,ENE,68,0.0,0.4,93,0.00,,,0.00,WUHU216HW,2013-02-01 09:41:00,
2013-02-01 01:46:00,40.7,38.8,30.28,NE,45,0.0,0.0,93,0.00,,,0.00,WUHU216HW,2013-02-01 09:46:00,
2013-02-01 01:51:00,40.3,38.4,30.28,NE,45,0.0,0.0,93,0.00,,,0.00,WUHU216HW,2013-02-01 09:51:00,
2013-02-01 01:56:00,40.1,38.3,30.28,NE,45,0.0,0.4,93,0.00,,,0.00,WUHU216HW,2013-02-01 09:56:00,
2013-02-01 02:01:00,40.1,38.3,30.28,NE,45,0.0,0.4,93,0.00,,,0.00,WUHU216HW,2013-02-01 10:01:00,
2013-02-01 02:06:00,40.0,38.1,30.28,NE,45,0.0,0.0,93,0.00,,,0.00,WUHU216HW,2013-02-01 10:06:00,
2013-02-01 02:11:00,39.8,37.9,30.28,NE,45,0.0,0.2,93,0.00,,,0.00,WUHU216HW,2013-02-01 10:11:00,
2013-02-01 02:16:00,39.6,37.7,30.28,NE,45,0.0,0.2,93,0.00,,,0.00,WUHU216HW,2013-02-01 10:16:00,
2013-02-01 02:21:00,39.2,37.4,30.28,NE,45,0.0,0.0,93,0.00,,,0.00,WUHU216HW,2013-02-01 10:21:00,
2013-02-01 02:26:00,39.2,37.4,30.28,NE,45,0.0,0.0,93,0.00,,,0.00,WUHU216HW,2013-02-01 10:26:00,
2013-02-01 02:31:00,38.9,36.7,30.28,NE,45,0.0,0.0,92,0.00,,,0.00,WUHU216HW,2013-02-01 10:31:00,
2013-02-01 02:36:00,38.7,36.5,30.28,NE,45,0.0,0.0,92,0.00,,,0.00,WUHU216HW,2013-02-01 10:36:00,
2013-02-01 02:41:00,38.5,36.4,30.28,NE,45,0.0,0.0,92,0.00,,,0.00,WUHU216HW,2013-02-01 10:41:00,
2013-02-01 02:46:00,38.5,36.4,30.28,NE,45,0.0,0.0,92,0.00,,,0.00,WUHU216HW,2013-02-01 10:46:00,
2013-02-01 02:51:00,38.3,36.2,30.28,NE,45,0.0,0.0,92,0.00,,,0.00,WUHU216HW,2013-02-01 10:51:00,
2013-02-01 02:56:00,38.3,36.2,30.28,NE,45,0.0,0.0,92,0.00,,,0.00,WUHU216HW,2013-02-01 10:56:00,
2013-02-01 03:01:00,38.2,36.0,30.28,NE,45,0.0,0.0,92,0.00,,,0.00,WUHU216HW,2013-02-01 11:01:00,
2013-02-01 03:06:00,38.2,36.0,30.28,NE,45,0.0,0.0,92,0.00,,,0.00,WUHU216HW,2013-02-01 11:06:00,
2013-02-01 03:11:00,38.2,36.0,30.28,NE,45,0.0,0.0,92,0.00,,,0.00,WUHU216HW,2013-02-01 11:11:00,
2013-02-01 03:16:00,38.3,36.2,30.28,NE,45,0.0,0.0,92,0.00,,,0.00,WUHU216HW,2013-02-01 11:16:00,
2013-02-01 03:21:00,38.2,36.0,30.27,NE,45,0.0,0.0,92,0.00,,,0.00,WUHU216HW,2013-02-01 11:21:00,
2013-02-01 03:26:00,38.2,36.0,30.27,NE,45,0.0,0.4,92,0.00,,,0.00,WUHU216HW,2013-02-01 11:26:00,
2013-02-01 03:31:00,38.2,36.0,30.27,South,180,0.4,0.4,92,0.00,,,0.00,WUHU216HW,2013-02-01 11:31:00,
2013-02-01 03:36:00,38.0,35.8,30.27,SSW,203,0.0,0.4,92,0.00,,,0.00,WUHU216HW,2013-02-01 11:36:00,
2013-02-01 03:41:00,37.8,35.6,30.27,SSW,203,0.2,0.4,92,0.00,,,0.00,WUHU216HW,2013-02-01 11:41:00,
2013-02-01 03:46:00,37.8,35.6,30.27,SW,225,0.0,0.2,92,0.00,,,0.00,WUHU216HW,2013-02-01 11:46:00,
2013-02-01 03:51:00,37.6,35.5,30.27,SW,225,0.0,0.2,92,0.00,,,0.00,WUHU216HW,2013-02-01 11:51:00,
2013-02-01 03:56:00,37.6,35.5,30.27,SW,225,0.0,0.0,92,0.00,,,0.00,WUHU216HW,2013-02-01 11:56:00,
2013-02-01 04:01:00,37.4,35.6,30.27,SW,225,0.0,0.0,93,0.00,,,0.00,WUHU216HW,2013-02-01 12:01:00,
2013-02-01 04:06:00,37.3,35.4,30.27,SW,225,0.0,0.4,93,0.00,,,0.00,WUHU216HW,2013-02-01 12:06:00,
2013-02-01 04:11:00,37.3,35.4,30.27,SW,225,0.0,0.4,93,0.00,,,0.00,WUHU216HW,2013-02-01 12:11:00,
2013-02-01 04:16:00,37.4,35.6,30.27,WSW,248,0.0,0.0,93,0.00,,,0.00,WUHU216HW,2013-02-01 12:16:00,
2013-02-01 04:21:00,37.4,35.6,30.27,WSW,248,0.0,0.0,93,0.00,,,0.00,WUHU216HW,2013-02-01 12:21:00,
2013-02-01 04:26:00,37.6,35.7,30.27,WSW,248,0.0,0.0,93,0.00,,,0.00,WUHU216HW,2013-02-01 12:26:00,
2013-02-01 04:31:00,37.8,35.9,30.27,SW,225,0.0,0.0,93,0.00,,,0.00,WUHU216HW,2013-02-01 12:31:00,
2013-02-01 04:36:00,37.8,35.9,30.27,SW,225,0.0,0.2,93,0.00,,,0.00,WUHU216HW,2013-02-01 12:36:00,
2013-02-01 04:41:00,37.8,35.9,30.27,SSW,203,0.0,0.2,93,0.00,,,0.00,WUHU216HW,2013-02-01 12:41:00,
2013-02-01 04:46:00,37.8,35.9,30.27,SSW,203,0.0,0.2,93,0.00,,,0.00,WUHU216HW,2013-02-01 12:46:00,
2013-02-01 04:51:00,37.8,35.9,30.27,SSW,203,0.0,0.0,93,0.00,,,0.00,WUHU216HW,2013-02-01 12:51:00,
2013-02-01 04:56:00,37.8,35.9,30.27,SSW,203,0.0,0.0,93,0.00,,,0.00,WUHU216HW,2013-02-01 12:56:00,
2013-02-01 05:01:00,37.8,35.9,30.27,SSW,203,0.0,0.2,93,0.00,,,0.00,WUHU216HW,2013-02-01 13:01:00,
2013-02-01 05:06:00,37.8,35.9,30.27,SSW,203,0.0,0.2,93,0.00,,,0.00,WUHU216HW,2013-02-01 13:06:00,
2013-02-01 05:11:00,37.6,35.7,30.27,SSW,203,0.0,0.2,93,0.00,,,0.00,WUHU216HW,2013-02-01 13:11:00,
2013-02-01 05:16:00,37.4,35.6,30.27,SSE,158,0.4,0.4,93,0.00,,,0.00,WUHU216HW,2013-02-01 13:16:00,
2013-02-01 05:21:00,37.3,35.4,30.27,SSE,158,0.4,0.4,93,0.00,,,0.00,WUHU216HW,2013-02-01 13:21:00,
2013-02-01 05:26:00,37.4,35.8,30.26,SSE,158,0.0,0.4,94,0.00,,,0.00,WUHU216HW,2013-02-01 13:26:00,
2013-02-01 05:31:00,37.4,35.8,30.26,SSE,158,0.0,0.4,94,0.00,,,0.00,WUHU216HW,2013-02-01 13:31:00,
2013-02-01 05:36:00,37.4,35.8,30.26,SSE,158,0.0,0.2,94,0.00,,,0.00,WUHU216HW,2013-02-01 13:36:00,
2013-02-01 05:41:00,37.6,36.0,30.26,SSE,158,0.0,0.0,94,0.00,,,0.00,WUHU216HW,2013-02-01 13:41:00,
2013-02-01 05:46:00,37.8,36.2,30.26,SSE,158,0.0,0.0,94,0.00,,,0.00,WUHU216HW,2013-02-01 13:46:00,
2013-02-01 05:51:00,37.8,36.2,30.26,ESE,113,0.2,0.2,94,0.00,,,0.00,WUHU216HW,2013-02-01 13:51:00,
2013-02-01 05:56:00,37.6,36.0,30.26,ESE,113,0.0,0.4,94,0.00,,,0.00,WUHU216HW,2013-02-01 13:56:00,
2013-02-01 06:01:00,37.8,36.2,30.27,ESE,113,0.2,0.4,94,0.00,,,0.00,WUHU216HW,2013-02-01 14:01:00,
2013-02-01 06:06:00,37.8,36.2,30.26,SSE,158,0.0,0.2,94,0.00,,,0.00,WUHU216HW,2013-02-01 14:06:00,
2013-02-01 06:11:00,38.2,36.5,30.26,SSE,158,0.4,0.7,94,0.00,,,0.00,WUHU216HW,2013-02-01 14:11:00,
2013-02-01 06:16:00,38.2,36.5,30.26,SSE,158,0.7,1.6,94,0.00,,,0.00,WUHU216HW,2013-02-01 14:16:00,
2013-02-01 06:21:00,38.3,36.7,30.26,SSE,158,0.2,1.6,94,0.00,,,0.00,WUHU216HW,2013-02-01 14:21:00,
2013-02-01 06:26:00,38.3,36.7,30.26,ENE,68,0.0,0.9,94,0.00,,,0.00,WUHU216HW,2013-02-01 14:26:00,
2013-02-01 06:31:00,38.5,36.9,30.27,SSE,158,0.7,0.9,94,0.00,,,0.00,WUHU216HW,2013-02-01 14:31:00,
2013-02-01 06:36:00,38.5,36.9,30.27,NW,315,0.7,0.9,94,0.00,,,0.00,WUHU216HW,2013-02-01 14:36:00,
2013-02-01 06:41:00,38.5,36.9,30.27,SSW,203,1.1,1.1,94,0.00,,,0.00,WUHU216HW,2013-02-01 14:41:00,
2013-02-01 06:46:00,38.5,36.9,30.27,SSE,158,0.4,1.1,94,0.00,,,0.00,WUHU216HW,2013-02-01 14:46:00,
2013-02-01 06:51:00,38.5,36.9,30.27,SSW,203,0.2,0.9,94,0.00,,,0.00,WUHU216HW,2013-02-01 14:51:00,
2013-02-01 06:56:00,38.7,37.1,30.27,SSE,158,0.0,0.4,94,0.00,,,0.00,WUHU216HW,2013-02-01 14:56:00,
2013-02-01 07:01:00,38.7,37.1,30.27,SW,225,0.0,0.7,94,0.00,,,0.00,WUHU216HW,2013-02-01 15:01:00,
2013-02-01 07:06:00,38.9,37.3,30.27,NNW,338,0.0,0.7,94,0.00,,,0.00,WUHU216HW,2013-02-01 15:06:00,
2013-02-01 07:11:00,39.1,37.4,30.27,NNW,338,0.0,0.2,94,0.00,,,0.00,WUHU216HW,2013-02-01 15:11:00,
2013-02-01 07:16:00,39.6,38.0,30.27,NW,315,0.0,0.4,94,0.00,,,0.00,WUHU216HW,2013-02-01 15:16:00,
2013-02-01 07:21:00,40.0,38.3,30.27,NW,315,0.0,0.4,94,0.00,,,0.00,WUHU216HW,2013-02-01 15:21:00,
2013-02-01 07:26:00,40.5,39.4,30.27,NW,315,0.0,0.2,96,0.00,,,0.00,WUHU216HW,2013-02-01 15:26:00,
2013-02-01 07:31:00,40.7,39.3,30.27,NW,315,0.0,0.2,95,0.00,,,0.00,WUHU216HW,2013-02-01 15:31:00,
2013-02-01 07:36:00,41.0,40.0,30.27,NW,315,0.0,0.2,96,0.00,,,0.00,WUHU216HW,2013-02-01 15:36:00,
2013-02-01 07:41:00,40.9,39.5,30.27,NW,315,0.0,0.2,95,0.00,,,0.00,WUHU216HW,2013-02-01 15:41:00,
2013-02-01 07:46:00,40.7,39.3,30.27,NW,315,0.0,0.0,95,0.00,,,0.00,WUHU216HW,2013-02-01 15:46:00,
2013-02-01 07:51:00,41.0,39.7,30.27,WNW,293,0.0,0.0,95,0.00,,,0.00,WUHU216HW,2013-02-01 15:51:00,
2013-02-01 07:56:00,41.0,39.7,30.27,WNW,293,0.0,0.0,95,0.00,,,0.00,WUHU216HW,2013-02-01 15:56:00,
2013-02-01 08:01:00,40.9,39.5,30.27,WNW,293,0.0,0.0,95,0.00,,,0.00,WUHU216HW,2013-02-01 16:01:00,
2013-02-01 08:06:00,40.7,39.3,30.27,WNW,293,0.0,0.0,95,0.00,,,0.00,WUHU216HW,2013-02-01 16:06:00,
2013-02-01 08:11:00,40.7,39.3,30.27,NW,315,0.0,0.4,95,0.00,,,0.00,WUHU216HW,2013-02-01 16:11:00,
2013-02-01 08:16:00,40.7,39.3,30.27,NW,315,0.0,0.4,95,0.00,,,0.00,WUHU216HW,2013-02-01 16:16:00,
2013-02-01 08:21:00,40.3,39.0,30.27,NW,315,0.0,0.2,95,0.00,,,0.00,WUHU216HW,2013-02-01 16:21:00,
2013-02-01 08:26:00,40.3,39.0,30.27,SSW,203,0.0,0.4,95,0.00,,,0.00,WUHU216HW,2013-02-01 16:26:00,
2013-02-01 08:31:00,40.3,39.0,30.27,SW,225,0.0,0.4,95,0.00,,,0.00,WUHU216HW,2013-02-01 16:31:00,
2013-02-01 08:36:00,40.3,39.0,30.27,SW,225,0.0,0.4,95,0.00,,,0.00,WUHU216HW,2013-02-01 16:36:00,
2013-02-01 08:41:00,40.3,39.0,30.27,WNW,293,0.0,0.2,95,0.00,,,0.00,WUHU216HW,2013-02-01 16:41:00,
2013-02-01 08:46:00,40.5,39.2,30.27,WSW,248,0.0,0.7,95,0.00,,,0.00,WUHU216HW,2013-02-01 16:46:00,
2013-02-01 08:51:00,40.7,39.3,30.27,West,270,0.0,0.7,95,0.00,,,0.00,WUHU216HW,2013-02-01 16:51:00,
2013-02-01 08:56:00,40.7,39.3,30.27,WSW,248,0.0,0.4,95,0.00,,,0.00,WUHU216HW,2013-02-01 16:56:00,
2013-02-01 09:01:00,41.0,39.7,30.28,South,180,0.2,0.4,95,0.00,,,0.00,WUHU216HW,2013-02-01 17:01:00,
2013-02-01 09:06:00,41.2,39.9,30.28,SSE,158,0.0,0.4,95,0.00,,,0.00,WUHU216HW,2013-02-01 17:06:00,
2013-02-01 09:11:00,41.4,40.1,30.28,SW,225,0.2,0.4,95,0.00,,,0.00,WUHU216HW,2013-02-01 17:11:00,
2013-02-01 09:16:00,41.4,40.1,30.28,SSW,203,0.0,0.4,95,0.00,,,0.00,WUHU216HW,2013-02-01 17:16:00,
2013-02-01 09:21:00,41.8,40.4,30.28,East,90,0.0,0.4,95,0.00,,,0.00,WUHU216HW,2013-02-01 17:21:00,
2013-02-01 09:26:00,41.9,40.6,30.28,East,90,0.0,0.4,95,0.00,,,0.00,WUHU216HW,2013-02-01 17:26:00,
2013-02-01 09:31:00,41.9,40.6,30.28,North,0,0.2,0.2,95,0.00,,,0.00,WUHU216HW,2013-02-01 17:31:00,
2013-02-01 09:36:00,42.1,40.8,30.28,NE,45,0.2,0.4,95,0.00,,,0.00,WUHU216HW,2013-02-01 17:36:00,
2013-02-01 09:41:00,41.9,40.6,30.28,NNE,23,0.4,0.7,95,0.00,,,0.00,WUHU216HW,2013-02-01 17:41:00,
2013-02-01 09:46:00,41.8,40.7,30.28,NE,45,0.4,0.9,96,0.00,,,0.00,WUHU216HW,2013-02-01 17:46:00,
2013-02-01 09:51:00,41.9,40.9,30.28,North,0,0.9,1.3,96,0.00,,,0.00,WUHU216HW,2013-02-01 17:51:00,
2013-02-01 09:56:00,42.1,41.0,30.28,NE,45,0.7,1.3,96,0.00,,,0.00,WUHU216HW,2013-02-01 17:56:00,
2013-02-01 10:01:00,42.1,41.0,30.28,NNE,23,0.4,1.3,96,0.00,,,0.00,WUHU216HW,2013-02-01 18:01:00,
2013-02-01 10:06:00,42.3,41.2,30.28,NNE,23,0.7,0.7,96,0.00,,,0.00,WUHU216HW,2013-02-01 18:06:00,
2013-02-01 10:11:00,42.5,41.4,30.28,North,0,0.7,1.1,96,0.00,,,0.00,WUHU216HW,2013-02-01 18:11:00,
2013-02-01 10:16:00,42.5,41.4,30.28,North,0,1.1,1.8,96,0.00,,,0.00,WUHU216HW,2013-02-01 18:16:00,
2013-02-01 10:21:00,42.5,41.4,30.28,NNE,23,1.3,2.5,96,0.00,,,0.00,WUHU216HW,2013-02-01 18:21:00,
2013-02-01 10:26:00,42.7,41.6,30.27,NNE,23,1.8,3.6,96,0.00,,,0.00,WUHU216HW,2013-02-01 18:26:00,
2013-02-01 10:31:00,42.7,41.3,30.27,North,0,2.2,3.6,95,0.00,,,0.00,WUHU216HW,2013-02-01 18:31:00,
2013-02-01 10:36:00,42.8,41.5,30.28,ESE,113,0.2,3.6,95,0.00,,,0.00,WUHU216HW,2013-02-01 18:36:00,
2013-02-01 10:41:00,43.2,41.9,30.28,North,0,4.3,4.3,95,0.00,,,0.00,WUHU216HW,2013-02-01 18:41:00,
2013-02-01 10:46:00,43.2,41.9,30.28,NNE,23,1.6,4.3,95,0.00,,,0.00,WUHU216HW,2013-02-01 18:46:00,
2013-02-01 10:51:00,43.2,41.9,30.27,NNE,23,2.5,4.3,95,0.00,,,0.00,WUHU216HW,2013-02-01 18:51:00,
2013-02-01 10:56:00,43.4,42.0,30.28,North,0,1.1,2.9,95,0.00,,,0.00,WUHU216HW,2013-02-01 18:56:00,
2013-02-01 11:01:00,43.7,42.1,30.28,North,0,1.3,3.8,94,0.00,,,0.00,WUHU216HW,2013-02-01 19:01:00,
2013-02-01 11:06:00,43.9,42.0,30.28,NE,45,1.8,3.8,93,0.00,,,0.00,WUHU216HW,2013-02-01 19:06:00,
2013-02-01 11:11:00,43.9,42.0,30.28,NNE,23,4.9,4.9,93,0.00,,,0.00,WUHU216HW,2013-02-01 19:11:00,
2013-02-01 11:16:00,43.9,42.0,30.28,NNE,23,1.8,4.9,93,0.00,,,0.00,WUHU216HW,2013-02-01 19:16:00,
2013-02-01 11:21:00,43.7,41.9,30.28,NW,315,0.2,5.4,93,0.00,,,0.00,WUHU216HW,2013-02-01 19:21:00,
2013-02-01 11:26:00,43.9,41.8,30.28,NNE,23,2.9,5.4,92,0.00,,,0.00,WUHU216HW,2013-02-01 19:26:00,
2013-02-01 11:31:00,43.9,42.0,30.27,NNE,23,2.0,2.9,93,0.00,,,0.00,WUHU216HW,2013-02-01 19:31:00,
2013-02-01 11:36:00,44.1,42.2,30.27,East,90,1.1,2.5,93,0.00,,,0.00,WUHU216HW,2013-02-01 19:36:00,
2013-02-01 11:41:00,44.5,42.3,30.27,NNE,23,1.1,1.6,92,0.00,,,0.00,WUHU216HW,2013-02-01 19:41:00,
2013-02-01 11:46:00,44.3,42.1,30.27,NNE,23,0.0,1.8,92,0.00,,,0.00,WUHU216HW,2013-02-01 19:46:00,
2013-02-01 11:51:00,44.6,42.8,30.26,NE,45,0.4,1.8,93,0.00,,,0.00,WUHU216HW,2013-02-01 19:51:00,
2013-02-01 11:56:00,44.8,42.7,30.27,NNE,23,0.4,1.1,92,0.00,,,0.00,WUHU216HW,2013-02-01 19:56:00,
2013-02-01 12:01:00,45.2,43.0,30.27,NE,45,0.2,1.3,92,0.00,,,0.00,WUHU216HW,2013-02-01 20:01:00,
2013-02-01 12:06:00,45.5,43.1,30.26,North,0,1.3,1.3,91,0.00,,,0.00,WUHU216HW,2013-02-01 20:06:00,
2013-02-01 12:11:00,45.5,43.1,30.26,North,0,0.4,2.0,91,0.00,,,0.00,WUHU216HW,2013-02-01 20:11:00,
2013-02-01 12:16:00,45.7,43.3,30.26,North,0,0.2,2.0,91,0.00,,,0.00,WUHU216HW,2013-02-01 20:16:00,
2013-02-01 12:21:00,46.1,43.9,30.26,NNW,338,1.1,1.8,92,0.00,,,0.00,WUHU216HW,2013-02-01 20:21:00,
2013-02-01 12:26:00,46.4,44.3,30.26,NNE,23,2.2,2.5,92,0.00,,,0.00,WUHU216HW,2013-02-01 20:26:00,
2013-02-01 12:31:00,46.6,44.2,30.25,NNE,23,2.5,2.9,91,0.00,,,0.00,WUHU216HW,2013-02-01 20:31:00,
2013-02-01 12:36:00,46.8,44.4,30.25,North,0,2.2,4.0,91,0.00,,,0.00,WUHU216HW,2013-02-01 20:36:00,
2013-02-01 12:41:00,47.0,44.6,30.25,East,90,0.4,4.0,91,0.00,,,0.00,WUHU216HW,2013-02-01 20:41:00,
2013-02-01 12:46:00,47.2,44.7,30.25,NNE,23,3.8,3.8,91,0.00,,,0.00,WUHU216HW,2013-02-01 20:46:00,
2013-02-01 12:51:00,47.3,44.6,30.25,NNW,338,4.7,4.7,90,0.00,,,0.00,WUHU216HW,2013-02-01 20:51:00,
2013-02-01 12:56:00,47.7,45.0,30.25,SSW,203,0.4,4.7,90,0.00,,,0.00,WUHU216HW,2013-02-01 20:56:00,
2013-02-01 13:01:00,48.2,44.9,30.25,NNE,23,3.8,4.7,88,0.00,,,0.00,WUHU216HW,2013-02-01 21:01:00,
2013-02-01 13:06:00,48.2,44.9,30.24,NNE,23,2.0,4.7,88,0.00,,,0.00,WUHU216HW,2013-02-01 21:06:00,
2013-02-01 13:11:00,48.6,45.2,30.24,West,270,1.8,4.7,88,0.00,,,0.00,WUHU216HW,2013-02-01 21:11:00,
2013-02-01 13:16:00,49.0,45.3,30.24,North,0,1.8,4.0,87,0.00,,,0.00,WUHU216HW,2013-02-01 21:16:00,
2013-02-01 13:21:00,49.7,45.6,30.24,NE,45,0.9,3.8,86,0.00,,,0.00,WUHU216HW,2013-02-01 21:21:00,
2013-02-01 13:26:00,50.2,46.1,30.24,North,0,2.5,6.3,86,0.00,,,0.00,WUHU216HW,2013-02-01 21:26:00,
2013-02-01 13:31:00,50.6,46.2,30.23,NNE,23,3.1,6.3,85,0.00,,,0.00,WUHU216HW,2013-02-01 21:31:00,
2013-02-01 13:36:00,50.8,46.4,30.23,NNE,23,4.7,4.9,85,0.00,,,0.00,WUHU216HW,2013-02-01 21:36:00,
2013-02-01 13:41:00,50.6,45.9,30.23,NNE,23,1.1,6.3,84,0.00,,,0.00,WUHU216HW,2013-02-01 21:41:00,
2013-02-01 13:46:00,50.6,45.9,30.23,NNE,23,3.4,6.3,84,0.00,,,0.00,WUHU216HW,2013-02-01 21:46:00,
2013-02-01 13:51:00,50.0,44.7,30.23,NNE,23,2.5,6.3,82,0.00,,,0.00,WUHU216HW,2013-02-01 21:51:00,
2013-02-01 13:56:00,49.9,44.8,30.23,North,0,3.4,6.3,83,0.00,,,0.00,WUHU216HW,2013-02-01 21:56:00,
2013-02-01 14:01:00,50.4,45.1,30.23,NNE,23,4.0,6.0,82,0.00,,,0.00,WUHU216HW,2013-02-01 22:01:00,
2013-02-01 14:06:00,50.6,45.5,30.22,ENE,68,0.4,6.0,83,0.00,,,0.00,WUHU216HW,2013-02-01 22:06:00,
2013-02-01 14:11:00,51.1,46.1,30.22,NNE,23,0.2,5.1,83,0.00,,,0.00,WUHU216HW,2013-02-01 22:11:00,
2013-02-01 14:16:00,50.9,45.6,30.22,NNW,338,4.0,8.1,82,0.00,,,0.00,WUHU216HW,2013-02-01 22:16:00,
2013-02-01 14:21:00,50.9,45.6,30.22,SE,135,0.4,8.1,82,0.00,,,0.00,WUHU216HW,2013-02-01 22:21:00,
2013-02-01 14:26:00,50.9,45.6,30.22,North,0,4.0,4.5,82,0.00,,,0.00,WUHU216HW,2013-02-01 22:26:00,
2013-02-01 14:31:00,51.1,45.8,30.21,NE,45,3.1,5.8,82,0.00,,,0.00,WUHU216HW,2013-02-01 22:31:00,
2013-02-01 14:36:00,51.1,45.8,30.21,North,0,3.6,6.9,82,0.00,,,0.00,WUHU216HW,2013-02-01 22:36:00,
2013-02-01 14:41:00,51.1,45.8,30.21,NNE,23,5.6,6.9,82,0.00,,,0.00,WUHU216HW,2013-02-01 22:41:00,
2013-02-01 14:46:00,51.3,46.0,30.21,NNE,23,0.9,5.8,82,0.00,,,0.00,WUHU216HW,2013-02-01 22:46:00,
2013-02-01 14:51:00,51.5,46.2,30.21,NE,45,0.9,4.5,82,0.00,,,0.00,WUHU216HW,2013-02-01 22:51:00,
2013-02-01 14:56:00,51.8,46.2,30.21,NNE,23,1.8,3.4,81,0.00,,,0.00,WUHU216HW,2013-02-01 22:56:00,
2013-02-01 15:01:00,52.0,46.4,30.21,WNW,293,0.7,3.8,81,0.00,,,0.00,WUHU216HW,2013-02-01 23:01:00,
2013-02-01 15:06:00,52.2,46.9,30.21,West,270,0.4,3.8,82,0.00,,,0.00,WUHU216HW,2013-02-01 23:06:00,
2013-02-01 15:11:00,52.2,46.5,30.20,NNE,23,1.1,3.4,81,0.00,,,0.00,WUHU216HW,2013-02-01 23:11:00,
2013-02-01 15:16:00,52.0,46.4,30.20,North,0,2.5,3.4,81,0.00,,,0.00,WUHU216HW,2013-02-01 23:16:00,
2013-02-01 15:21:00,52.2,46.3,30.20,NNE,23,1.8,3.4,80,0.00,,,0.00,WUHU216HW,2013-02-01 23:21:00,
2013-02-01 15:26:00,52.2,46.5,30.20,NNE,23,4.3,4.3,81,0.00,,,0.00,WUHU216HW,2013-02-01 23:26:00,
2013-02-01 15:31:00,52.2,46.3,30.20,WNW,293,1.3,5.4,80,0.00,,,0.00,WUHU216HW,2013-02-01 23:31:00,
2013-02-01 15:36:00,52.2,46.3,30.20,NW,315,2.0,5.4,80,0.00,,,0.00,WUHU216HW,2013-02-01 23:36:00,
2013-02-01 15:41:00,52.2,46.3,30.20,NNE,23,0.9,3.6,80,0.00,,,0.00,WUHU216HW,2013-02-01 23:41:00,
2013-02-01 15:46:00,52.2,46.3,30.20,NNE,23,1.1,2.7,80,0.00,,,0.00,WUHU216HW,2013-02-01 23:46:00,
2013-02-01 15:51:00,52.6,46.3,30.20,NW,315,2.2,6.0,79,0.00,,,0.00,WUHU216HW,2013-02-01 23:51:00,
2013-02-01 15:56:00,52.7,46.1,30.19,North,0,2.9,6.0,78,0.00,,,0.00,WUHU216HW,2013-02-01 23:56:00,
2013-02-01 16:01:00,52.7,45.7,30.19,SW,225,3.6,5.1,77,0.00,,,0.00,WUHU216HW,2013-02-02 00:01:00,
2013-02-01 16:06:00,52.9,45.9,30.19,NNE,23,2.7,5.1,77,0.00,,,0.00,WUHU216HW,2013-02-02 00:06:00,
2013-02-01 16:11:00,52.9,45.9,30.19,North,0,2.2,5.8,77,0.00,,,0.00,WUHU216HW,2013-02-02 00:11:00,
2013-02-01 16:16:00,52.9,45.9,30.19,South,180,5.1,6.3,77,0.00,,,0.00,WUHU216HW,2013-02-02 00:16:00,
2013-02-01 16:21:00,52.6,45.5,30.19,NNE,23,3.6,6.3,77,0.00,,,0.00,WUHU216HW,2013-02-02 00:21:00,
2013-02-01 16:26:00,52.6,45.5,30.19,NNE,23,4.0,6.3,77,0.00,,,0.00,WUHU216HW,2013-02-02 00:26:00,
2013-02-01 16:31:00,52.4,45.7,30.19,NNE,23,3.6,6.3,78,0.00,,,0.00,WUHU216HW,2013-02-02 00:31:00,
2013-02-01 16:36:00,52.2,45.5,30.19,SE,135,0.7,6.0,78,0.00,,,0.00,WUHU216HW,2013-02-02 00:36:00,
2013-02-01 16:41:00,52.2,45.5,30.19,North,0,1.8,6.3,78,0.00,,,0.00,WUHU216HW,2013-02-02 00:41:00,
2013-02-01 16:46:00,52.0,45.4,30.19,North,0,1.3,6.3,78,0.00,,,0.00,WUHU216HW,2013-02-02 00:46:00,
2013-02-01 16:51:00,51.8,45.5,30.19,NNE,23,4.0,4.0,79,0.00,,,0.00,WUHU216HW,2013-02-02 00:51:00,
2013-02-01 16:56:00,51.5,45.2,30.19,NE,45,1.8,4.0,79,0.00,,,0.00,WUHU216HW,2013-02-02 00:56:00,
2013-02-01 17:01:00,51.5,45.2,30.19,North,0,2.7,4.0,79,0.00,,,0.00,WUHU216HW,2013-02-02 01:01:00,
2013-02-01 17:06:00,51.3,45.4,30.19,NNW,338,0.7,3.8,80,0.00,,,0.00,WUHU216HW,2013-02-02 01:06:00,
2013-02-01 17:11:00,51.1,45.2,30.19,ENE,68,0.2,3.8,80,0.00,,,0.00,WUHU216HW,2013-02-02 01:11:00,
2013-02-01 17:16:00,50.8,44.8,30.19,SSW,203,1.1,2.7,80,0.00,,,0.00,WUHU216HW,2013-02-02 01:16:00,
2013-02-01 17:21:00,50.6,44.6,30.19,NE,45,0.0,2.2,80,0.00,,,0.00,WUHU216HW,2013-02-02 01:21:00,
2013-02-01 17:26:00,50.2,44.6,30.19,NNW,338,0.0,1.6,81,0.00,,,0.00,WUHU216HW,2013-02-02 01:26:00,
2013-02-01 17:31:00,49.9,44.2,30.19,NNW,338,0.0,1.6,81,0.00,,,0.00,WUHU216HW,2013-02-02 01:31:00,
2013-02-01 17:36:00,49.7,44.4,30.19,NNW,338,0.0,0.0,82,0.00,,,0.00,WUHU216HW,2013-02-02 01:36:00,
2013-02-01 17:41:00,49.1,43.8,30.19,NNW,338,0.0,0.0,82,0.00,,,0.00,WUHU216HW,2013-02-02 01:41:00,
2013-02-01 17:46:00,48.8,43.5,30.19,NNW,338,0.0,0.0,82,0.00,,,0.00,WUHU216HW,2013-02-02 01:46:00,
2013-02-01 17:51:00,48.4,43.5,30.19,NNW,338,0.2,0.2,83,0.00,,,0.00,WUHU216HW,2013-02-02 01:51:00,
2013-02-01 17:56:00,48.2,42.9,30.19,NNW,338,0.0,0.2,82,0.00,,,0.00,WUHU216HW,2013-02-02 01:56:00,
2013-02-01 18:01:00,47.9,42.9,30.19,NNW,338,0.0,0.2,83,0.00,,,0.00,WUHU216HW,2013-02-02 02:01:00,
2013-02-01 18:06:00,47.7,42.8,30.19,NNW,338,0.0,0.2,83,0.00,,,0.00,WUHU216HW,2013-02-02 02:06:00,
2013-02-01 18:11:00,47.5,42.9,30.20,NNW,338,0.2,0.2,84,0.00,,,0.00,WUHU216HW,2013-02-02 02:11:00,
2013-02-01 18:16:00,47.2,42.6,30.20,North,0,0.2,0.2,84,0.00,,,0.00,WUHU216HW,2013-02-02 02:16:00,
2013-02-01 18:21:00,47.2,42.9,30.20,North,0,0.2,0.4,85,0.00,,,0.00,WUHU216HW,2013-02-02 02:21:00,
2013-02-01 18:26:00,46.8,42.6,30.20,NNW,338,0.0,0.4,85,0.00,,,0.00,WUHU216HW,2013-02-02 02:26:00,
2013-02-01 18:31:00,46.4,42.2,30.20,NNW,338,0.0,0.2,85,0.00,,,0.00,WUHU216HW,2013-02-02 02:31:00,
2013-02-01 18:36:00,46.1,41.9,30.20,NNW,338,0.0,0.2,85,0.00,,,0.00,WUHU216HW,2013-02-02 02:36:00,
2013-02-01 18:41:00,45.9,41.7,30.20,NNW,338,0.0,0.2,85,0.00,,,0.00,WUHU216HW,2013-02-02 02:41:00,
2013-02-01 18:46:00,45.7,41.8,30.20,NNW,338,0.0,0.2,86,0.00,,,0.00,WUHU216HW,2013-02-02 02:46:00,
2013-02-01 18:51:00,45.5,41.6,30.20,NNW,338,0.0,0.2,86,0.00,,,0.00,WUHU216HW,2013-02-02 02:51:00,
2013-02-01 18:56:00,45.2,41.2,30.20,NNW,338,0.0,0.0,86,0.00,,,0.00,WUHU216HW,2013-02-02 02:56:00,
2013-02-01 19:01:00,45.0,41.4,30.20,NNW,338,0.0,0.4,87,0.00,,,0.00,WUHU216HW,2013-02-02 03:01:00,
2013-02-01 19:06:00,44.8,41.9,30.20,North,0,0.7,0.9,89,0.00,,,0.00,WUHU216HW,2013-02-02 03:06:00,
2013-02-01 19:11:00,45.0,42.0,30.20,North,0,0.9,2.5,89,0.00,,,0.00,WUHU216HW,2013-02-02 03:11:00,
2013-02-01 19:16:00,45.0,41.7,30.20,NE,45,0.2,2.5,88,0.00,,,0.00,WUHU216HW,2013-02-02 03:16:00,
2013-02-01 19:21:00,44.8,41.5,30.20,NE,45,0.0,1.1,88,0.00,,,0.00,WUHU216HW,2013-02-02 03:21:00,
2013-02-01 19:26:00,44.6,41.3,30.20,NE,45,0.0,0.0,88,0.00,,,0.00,WUHU216HW,2013-02-02 03:26:00,
2013-02-01 19:31:00,44.3,41.0,30.20,NE,45,0.0,0.0,88,0.00,,,0.00,WUHU216HW,2013-02-02 03:31:00,
2013-02-01 19:36:00,43.7,40.4,30.20,NE,45,0.0,0.0,88,0.00,,,0.00,WUHU216HW,2013-02-02 03:36:00,
2013-02-01 19:41:00,43.6,40.2,30.20,NE,45,0.0,0.0,88,0.00,,,0.00,WUHU216HW,2013-02-02 03:41:00,
2013-02-01 19:46:00,43.2,39.6,30.20,NE,45,0.0,0.0,87,0.00,,,0.00,WUHU216HW,2013-02-02 03:46:00,
2013-02-01 19:51:00,43.0,39.4,30.20,NE,45,0.0,0.0,87,0.00,,,0.00,WUHU216HW,2013-02-02 03:51:00,
2013-02-01 19:56:00,42.8,39.3,30.20,NE,45,0.0,0.0,87,0.00,,,0.00,WUHU216HW,2013-02-02 03:56:00,
2013-02-01 20:01:00,42.5,38.9,30.20,NE,45,0.2,0.4,87,0.00,,,0.00,WUHU216HW,2013-02-02 04:01:00,
2013-02-01 20:06:00,42.3,39.0,30.21,NE,45,0.0,0.4,88,0.00,,,0.00,WUHU216HW,2013-02-02 04:06:00,
2013-02-01 20:11:00,42.1,38.8,30.20,NE,45,0.0,0.2,88,0.00,,,0.00,WUHU216HW,2013-02-02 04:11:00,
2013-02-01 20:16:00,41.8,38.4,30.21,North,0,0.0,0.0,88,0.00,,,0.00,WUHU216HW,2013-02-02 04:16:00,
2013-02-01 20:21:00,41.6,38.6,30.20,NNW,338,0.0,0.0,89,0.00,,,0.00,WUHU216HW,2013-02-02 04:21:00,
2013-02-01 20:26:00,41.4,38.4,30.21,NW,315,0.0,0.0,89,0.00,,,0.00,WUHU216HW,2013-02-02 04:26:00,
2013-02-01 20:31:00,41.4,38.4,30.21,NW,315,0.0,0.0,89,0.00,,,0.00,WUHU216HW,2013-02-02 04:31:00,
2013-02-01 20:36:00,41.4,38.7,30.21,NNW,338,0.0,0.2,90,0.00,,,0.00,WUHU216HW,2013-02-02 04:36:00,
2013-02-01 20:41:00,41.2,38.5,30.21,North,0,0.0,0.2,90,0.00,,,0.00,WUHU216HW,2013-02-02 04:41:00,
2013-02-01 20:46:00,41.4,39.0,30.21,NNE,23,0.4,0.9,91,0.00,,,0.00,WUHU216HW,2013-02-02 04:46:00,
2013-02-01 20:51:00,41.6,39.4,30.21,NNE,23,0.4,1.1,92,0.00,,,0.00,WUHU216HW,2013-02-02 04:51:00,
2013-02-01 20:56:00,41.8,39.3,30.21,NNW,338,0.0,1.1,91,0.00,,,0.00,WUHU216HW,2013-02-02 04:56:00,
2013-02-01 21:00:00,41.6,39.2,30.21,NW,315,0.0,1.1,91,0.00,,,0.00,WUHU216HW,2013-02-02 05:00:00,
2013-02-01 21:01:00,41.6,38.9,30.21,NW,315,0.0,0.9,90,0.00,,,0.00,WUHU216HW,2013-02-02 05:01:00,
2013-02-01 21:06:00,41.4,38.7,30.21,NW,315,0.0,0.4,90,0.00,,,0.00,WUHU216HW,2013-02-02 05:06:00,
2013-02-01 21:11:00,41.2,38.5,30.21,NW,315,0.0,0.0,90,0.00,,,0.00,WUHU216HW,2013-02-02 05:11:00,
2013-02-01 21:16:00,41.0,38.6,30.21,NW,315,0.2,0.2,91,0.00,,,0.00,WUHU216HW,2013-02-02 05:16:00,
2013-02-01 21:21:00,40.7,38.3,30.21,NW,315,0.0,0.2,91,0.00,,,0.00,WUHU216HW,2013-02-02 05:21:00,
2013-02-01 21:26:00,40.3,37.9,30.21,NW,315,0.0,0.2,91,0.00,,,0.00,WUHU216HW,2013-02-02 05:26:00,
2013-02-01 21:31:00,40.1,37.7,30.21,NW,315,0.0,0.0,91,0.00,,,0.00,WUHU216HW,2013-02-02 05:31:00,
2013-02-01 21:36:00,40.0,37.5,30.21,NW,315,0.0,0.0,91,0.00,,,0.00,WUHU216HW,2013-02-02 05:36:00,
2013-02-01 21:41:00,39.6,37.4,30.21,NNW,338,0.0,0.2,92,0.00,,,0.00,WUHU216HW,2013-02-02 05:41:00,
2013-02-01 21:46:00,39.2,37.1,30.21,NE,45,0.0,0.2,92,0.00,,,0.00,WUHU216HW,2013-02-02 05:46:00,
2013-02-01 21:51:00,39.2,36.8,30.21,NE,45,0.0,0.2,91,0.00,,,0.00,WUHU216HW,2013-02-02 05:51:00,
2013-02-01 21:56:00,39.1,36.6,30.21,NE,45,0.0,0.0,91,0.00,,,0.00,WUHU216HW,2013-02-02 05:56:00,
2013-02-01 22:01:00,38.9,36.2,30.22,NE,45,0.0,0.0,90,0.00,,,0.00,WUHU216HW,2013-02-02 06:01:00,
2013-02-01 22:06:00,38.5,36.1,30.21,NE,45,0.0,0.2,91,0.00,,,0.00,WUHU216HW,2013-02-02 06:06:00,
2013-02-01 22:11:00,38.5,36.1,30.21,NE,45,0.0,0.2,91,0.00,,,0.00,WUHU216HW,2013-02-02 06:11:00,
2013-02-01 22:16:00,38.3,35.9,30.22,NE,45,0.0,0.0,91,0.00,,,0.00,WUHU216HW,2013-02-02 06:16:00,
2013-02-01 22:21:00,38.2,35.7,30.21,NE,45,0.0,0.0,91,0.00,,,0.00,WUHU216HW,2013-02-02 06:21:00,
2013-02-01 22:26:00,38.2,35.7,30.21,NE,45,0.0,0.0,91,0.00,,,0.00,WUHU216HW,2013-02-02 06:26:00,
2013-02-01 22:31:00,38.0,35.6,30.21,NE,45,0.0,0.0,91,0.00,,,0.00,WUHU216HW,2013-02-02 06:31:00,
2013-02-01 22:36:00,38.0,35.6,30.21,NE,45,0.2,0.2,91,0.00,,,0.00,WUHU216HW,2013-02-02 06:36:00,
2013-02-01 22:41:00,38.0,35.8,30.21,ENE,68,0.2,0.4,92,0.00,,,0.00,WUHU216HW,2013-02-02 06:41:00,
2013-02-01 22:46:00,38.0,35.8,30.21,ENE,68,0.0,0.4,92,0.00,,,0.00,WUHU216HW,2013-02-02 06:46:00,
2013-02-01 22:51:00,37.8,35.6,30.21,ENE,68,0.0,0.4,92,0.00,,,0.00,WUHU216HW,2013-02-02 06:51:00,
2013-02-01 22:56:00,37.4,35.3,30.21,ENE,68,0.0,0.2,92,0.00,,,0.00,WUHU216HW,2013-02-02 06:56:00,
2013-02-01 23:01:00,37.3,35.1,30.21,ENE,68,0.0,0.2,92,0.00,,,0.00,WUHU216HW,2013-02-02 07:01:00,
2013-02-01 23:06:00,37.1,34.9,30.22,ENE,68,0.2,0.2,92,0.00,,,0.00,WUHU216HW,2013-02-02 07:06:00,
2013-02-01 23:11:00,36.9,34.7,30.21,ENE,68,0.0,0.2,92,0.00,,,0.00,WUHU216HW,2013-02-02 07:11:00,
2013-02-01 23:16:00,36.9,34.7,30.22,ENE,68,0.2,0.2,92,0.00,,,0.00,WUHU216HW,2013-02-02 07:16:00,
2013-02-01 23:21:00,36.7,34.6,30.22,ENE,68,0.0,0.2,92,0.00,,,0.00,WUHU216HW,2013-02-02 07:21:00,
2013-02-01 23:26:00,36.7,34.6,30.21,ENE,68,0.0,0.2,92,0.00,,,0.00,WUHU216HW,2013-02-02 07:26:00,
2013-02-01 23:31:00,36.4,34.2,30.22,ENE,68,0.0,0.0,92,0.00,,,0.00,WUHU216HW,2013-02-02 07:31:00,
2013-02-01 23:36:00,36.4,34.2,30.22,ENE,68,0.0,0.0,92,0.00,,,0.00,WUHU216HW,2013-02-02 07:36:00,
2013-02-01 23:41:00,36.0,33.8,30.22,ENE,68,0.0,0.0,92,0.00,,,0.00,WUHU216HW,2013-02-02 07:41:00,
2013-02-01 23:46:00,36.0,33.8,30.22,ENE,68,0.2,0.2,92,0.00,,,0.00,WUHU216HW,2013-02-02 07:46:00,
2013-02-01 23:51:00,35.8,33.7,30.22,SE,135,0.0,0.4,92,0.00,,,0.00,WUHU216HW,2013-02-02 07:51:00,
2013-02-01 23:56:00,35.6,33.5,30.22,SE,135,0.0,0.4,92,0.00,,,0.00,WUHU216HW,2013-02-02 07:56:00,